createdAt,value
2017-06-16T00:01:04.290Z,13.03
2017-06-16T00:03:31.827Z,13.10
2017-06-16T00:05:59.346Z,14.53
2017-06-16T00:08:26.896Z,13.90
2017-06-16T00:10:54.409Z,13.63
2017-06-16T00:13:21.958Z,11.93
2017-06-16T00:15:49.470Z,14.67
2017-06-16T00:18:16.988Z,12.53
2017-06-16T00:20:44.820Z,13.87
2017-06-16T00:23:12.327Z,13.70
2017-06-16T00:25:39.852Z,11.17
2017-06-16T00:28:07.399Z,13.00
2017-06-16T00:30:34.918Z,12.30
2017-06-16T00:33:02.724Z,11.77
2017-06-16T00:35:30.284Z,14.50
2017-06-16T00:37:57.802Z,16.40
2017-06-16T00:40:25.608Z,13.50
2017-06-16T00:42:53.147Z,11.40
2017-06-16T00:45:20.885Z,12.67
2017-06-16T00:47:49.514Z,13.63
2017-06-16T00:50:17.031Z,11.67
2017-06-16T00:52:44.591Z,14.30
2017-06-16T00:55:12.181Z,17.17
2017-06-16T00:57:39.729Z,15.03
2017-06-16T01:00:07.239Z,15.23
2017-06-16T01:02:34.796Z,13.57
2017-06-16T01:05:02.385Z,12.77
2017-06-16T01:07:29.916Z,13.50
2017-06-16T01:09:57.758Z,12.07
2017-06-16T01:12:25.523Z,11.87
2017-06-16T01:14:53.070Z,11.93
2017-06-16T01:17:20.570Z,10.27
2017-06-16T01:19:48.124Z,10.27
2017-06-16T01:22:15.646Z,12.37
2017-06-16T01:24:43.170Z,13.07
2017-06-16T01:27:10.724Z,13.83
2017-06-16T01:29:38.238Z,13.63
2017-06-16T01:32:05.754Z,15.53
2017-06-16T01:34:33.372Z,16.07
2017-06-16T01:37:01.130Z,15.33
2017-06-16T01:39:28.651Z,14.53
2017-06-16T01:41:56.195Z,14.40
2017-06-16T01:44:23.707Z,12.27
2017-06-16T01:46:51.247Z,13.57
2017-06-16T01:49:18.763Z,13.80
2017-06-16T01:51:46.297Z,13.03
2017-06-16T01:54:13.814Z,12.17
2017-06-16T01:56:41.366Z,9.93
2017-06-16T01:59:08.884Z,10.77
2017-06-16T02:01:36.382Z,9.80
2017-06-16T02:04:03.921Z,8.77
2017-06-16T02:06:31.431Z,7.97
2017-06-16T02:08:58.996Z,8.67
2017-06-16T02:11:26.515Z,7.60
2017-06-16T02:13:54.038Z,11.30
2017-06-16T02:16:21.570Z,9.90
2017-06-16T02:18:49.061Z,9.30
2017-06-16T02:21:16.598Z,8.67
2017-06-16T02:23:44.117Z,8.97
2017-06-16T02:26:11.667Z,9.90
2017-06-16T02:28:39.204Z,13.53
2017-06-16T02:31:06.813Z,10.80
2017-06-16T02:33:34.361Z,12.17
2017-06-16T02:36:01.879Z,17.57
2017-06-16T02:38:29.428Z,32.63
2017-06-16T02:40:56.947Z,28.90
2017-06-16T02:43:24.486Z,26.73
2017-06-16T02:45:52.018Z,31.40
2017-06-16T02:48:19.531Z,26.47
2017-06-16T02:50:47.074Z,27.67
2017-06-16T02:53:14.585Z,28.03
2017-06-16T02:55:42.131Z,31.83
2017-06-16T02:58:09.652Z,26.90
2017-06-16T03:00:37.211Z,27.60
2017-06-16T03:03:04.726Z,29.00
2017-06-16T03:05:32.265Z,26.27
2017-06-16T03:07:59.804Z,25.37
2017-06-16T03:10:27.350Z,20.27
2017-06-16T03:12:54.891Z,20.90
2017-06-16T03:15:22.399Z,20.77
2017-06-16T03:17:49.943Z,20.67
2017-06-16T03:20:17.463Z,18.23
2017-06-16T03:22:50.766Z,19.53
2017-06-16T03:25:18.281Z,17.20
2017-06-16T03:27:45.838Z,18.50
2017-06-16T03:30:13.349Z,17.67
2017-06-16T03:32:41.151Z,19.73
2017-06-16T03:35:08.679Z,19.70
2017-06-16T03:37:36.234Z,20.30
2017-06-16T03:40:04.034Z,23.03
2017-06-16T03:42:31.559Z,24.00
2017-06-16T03:44:59.103Z,21.57
2017-06-16T03:47:26.625Z,23.17
2017-06-16T03:49:54.182Z,23.17
2017-06-16T03:52:21.699Z,28.37
2017-06-16T03:54:49.284Z,25.83
2017-06-16T03:57:16.837Z,26.63
2017-06-16T03:59:44.342Z,27.40
2017-06-16T04:02:11.901Z,24.73
2017-06-16T04:04:39.523Z,28.53
2017-06-16T04:07:07.077Z,25.83
2017-06-16T04:09:34.587Z,24.77
2017-06-16T04:12:03.241Z,22.67
2017-06-16T04:14:30.755Z,23.87
2017-06-16T04:16:58.270Z,24.97
2017-06-16T04:19:25.843Z,25.67
2017-06-16T04:21:53.351Z,22.57
2017-06-16T04:24:20.923Z,23.90
2017-06-16T04:26:48.439Z,24.40
2017-06-16T04:29:15.990Z,22.90
2017-06-16T04:31:43.490Z,25.60
2017-06-16T04:34:11.132Z,23.20
2017-06-16T04:36:38.650Z,21.10
2017-06-16T04:39:06.163Z,22.90
2017-06-16T04:41:34.422Z,21.53
2017-06-16T04:44:01.938Z,20.53
2017-06-16T04:46:29.473Z,21.03
2017-06-16T04:48:56.978Z,20.37
2017-06-16T04:51:24.535Z,22.60
2017-06-16T04:53:52.075Z,25.53
2017-06-16T04:56:19.612Z,21.13
2017-06-16T04:58:47.163Z,20.47
2017-06-16T05:01:14.731Z,22.17
2017-06-16T05:03:42.312Z,19.80
2017-06-16T05:06:09.822Z,19.20
2017-06-16T05:08:37.331Z,20.50
2017-06-16T05:11:04.890Z,19.33
2017-06-16T05:13:32.406Z,19.67
2017-06-16T05:15:59.932Z,19.37
2017-06-16T05:18:27.491Z,20.57
2017-06-16T05:20:54.997Z,20.70
2017-06-16T05:23:28.278Z,17.67
2017-06-16T05:25:55.795Z,18.37
2017-06-16T05:28:23.299Z,18.97
2017-06-16T05:30:50.839Z,17.90
2017-06-16T05:33:18.400Z,19.27
2017-06-16T05:35:46.683Z,18.50
2017-06-16T05:38:14.958Z,19.03
2017-06-16T05:40:42.494Z,20.30
2017-06-16T05:43:10.031Z,20.50
2017-06-16T05:45:37.593Z,17.67
2017-06-16T05:48:05.447Z,18.67
2017-06-16T05:50:33.215Z,16.67
2017-06-16T05:53:00.754Z,18.13
2017-06-16T05:55:28.258Z,17.20
2017-06-16T05:57:55.833Z,17.67
2017-06-16T06:00:24.108Z,16.83
2017-06-16T06:02:52.418Z,15.93
2017-06-16T06:05:19.931Z,16.67
2017-06-16T06:07:47.772Z,14.43
2017-06-16T06:10:15.282Z,14.53
2017-06-16T06:12:42.880Z,14.00
2017-06-16T06:15:10.434Z,12.40
2017-06-16T06:17:37.958Z,12.00
2017-06-16T06:20:05.775Z,11.67
2017-06-16T06:22:33.543Z,13.10
2017-06-16T06:25:01.088Z,12.83
2017-06-16T06:27:29.569Z,13.37
2017-06-16T06:29:57.347Z,13.30
2017-06-16T06:32:24.877Z,11.30
2017-06-16T06:34:52.403Z,11.77
2017-06-16T06:37:20.730Z,12.80
2017-06-16T06:39:48.242Z,12.17
2017-06-16T06:42:16.518Z,12.37
2017-06-16T06:44:44.852Z,14.30
2017-06-16T06:47:12.375Z,14.00
2017-06-16T06:49:40.183Z,12.17
2017-06-16T06:52:07.731Z,10.17
2017-06-16T06:54:35.262Z,8.20
2017-06-16T06:57:02.812Z,9.13
2017-06-16T06:59:31.343Z,9.70
2017-06-16T07:01:58.903Z,9.33
2017-06-16T07:04:26.570Z,9.07
2017-06-16T07:06:54.146Z,9.70
2017-06-16T07:09:21.696Z,10.10
2017-06-16T07:11:49.207Z,10.17
2017-06-16T07:14:16.772Z,12.80
2017-06-16T07:16:44.325Z,11.03
2017-06-16T07:19:11.829Z,8.30
2017-06-16T07:21:39.374Z,9.60
2017-06-16T07:24:06.896Z,9.07
2017-06-16T07:26:34.635Z,8.77
2017-06-16T07:29:02.479Z,9.00
2017-06-16T07:31:30.001Z,8.23
2017-06-16T07:33:57.530Z,10.20
2017-06-16T07:36:25.052Z,9.47
2017-06-16T07:38:52.595Z,7.93
2017-06-16T07:41:20.106Z,9.40
2017-06-16T07:43:47.663Z,10.37
2017-06-16T07:46:16.007Z,8.73
2017-06-16T07:48:43.526Z,16.80
2017-06-16T07:51:11.099Z,10.70
2017-06-16T07:53:38.640Z,11.57
2017-06-16T07:56:06.151Z,10.27
2017-06-16T07:58:33.699Z,14.17
2017-06-16T08:01:01.205Z,9.70
2017-06-16T08:03:29.551Z,12.60
2017-06-16T08:05:57.070Z,11.50
2017-06-16T08:08:24.595Z,13.33
2017-06-16T08:10:52.156Z,10.40
2017-06-16T08:13:20.554Z,11.40
2017-06-16T08:15:48.130Z,10.20
2017-06-16T08:18:15.670Z,9.73
2017-06-16T08:20:59.036Z,10.30
2017-06-16T08:23:26.607Z,11.50
2017-06-16T08:25:54.123Z,16.03
2017-06-16T08:28:21.647Z,11.60
2017-06-16T08:30:49.236Z,10.53
2017-06-16T08:33:17.529Z,11.13
2017-06-16T08:35:45.330Z,13.63
2017-06-16T08:38:12.843Z,13.10
2017-06-16T08:40:40.363Z,16.70
2017-06-16T08:43:07.912Z,16.70
2017-06-16T08:45:35.417Z,9.83
2017-06-16T08:48:03.727Z,8.70
2017-06-16T08:50:31.248Z,12.10
2017-06-16T08:52:59.567Z,10.30
2017-06-16T08:55:27.112Z,9.80
2017-06-16T08:57:54.613Z,9.87
2017-06-16T09:00:22.171Z,9.30
2017-06-16T09:02:49.669Z,11.50
2017-06-16T09:05:17.265Z,9.83
2017-06-16T09:07:44.911Z,8.57
2017-06-16T09:10:12.446Z,9.20
2017-06-16T09:12:39.961Z,8.83
2017-06-16T09:15:07.496Z,9.50
2017-06-16T09:17:35.027Z,7.20
2017-06-16T09:20:03.332Z,8.60
2017-06-16T09:22:30.842Z,7.87
2017-06-16T09:24:58.574Z,8.53
2017-06-16T09:27:26.109Z,7.13
2017-06-16T09:29:53.619Z,8.40
2017-06-16T09:32:21.458Z,9.00
2017-06-16T09:34:49.221Z,7.13
2017-06-16T09:37:16.728Z,6.70
2017-06-16T09:39:44.333Z,7.00
2017-06-16T09:42:11.842Z,8.37
2017-06-16T09:44:39.408Z,5.67
2017-06-16T09:47:06.924Z,6.50
2017-06-16T09:49:34.465Z,7.80
2017-06-16T09:52:02.068Z,6.50
2017-06-16T09:54:29.578Z,14.63
2017-06-16T09:56:57.220Z,12.73
2017-06-16T09:59:25.512Z,6.40
2017-06-16T10:01:53.015Z,8.23
2017-06-16T10:04:20.559Z,5.20
2017-06-16T10:06:48.079Z,10.40
2017-06-16T10:09:15.842Z,7.10
2017-06-16T10:11:43.373Z,6.60
2017-06-16T10:14:10.879Z,7.60
2017-06-16T10:16:38.415Z,6.90
2017-06-16T10:19:05.927Z,5.20
2017-06-16T10:21:33.466Z,5.97
2017-06-16T10:24:01.018Z,6.27
2017-06-16T10:26:28.531Z,4.93
2017-06-16T10:28:56.148Z,6.90
2017-06-16T10:31:23.667Z,6.40
2017-06-16T10:33:51.239Z,6.87
2017-06-16T10:36:18.744Z,3.80
2017-06-16T10:38:46.602Z,5.60
2017-06-16T10:41:14.366Z,4.63
2017-06-16T10:43:41.875Z,4.67
2017-06-16T10:46:09.432Z,8.77
2017-06-16T10:48:36.941Z,3.50
2017-06-16T10:51:04.707Z,2.80
2017-06-16T10:53:32.271Z,3.50
2017-06-16T10:56:00.035Z,3.90
2017-06-16T10:58:27.918Z,4.00
2017-06-16T11:00:55.458Z,3.93
2017-06-16T11:03:22.978Z,8.00
2017-06-16T11:05:51.287Z,4.37
2017-06-16T11:08:18.791Z,6.20
2017-06-16T11:10:46.353Z,4.10
2017-06-16T11:13:13.866Z,7.80
2017-06-16T11:15:41.370Z,2.47
2017-06-16T11:18:08.898Z,2.23
2017-06-16T11:20:36.401Z,3.17
2017-06-16T11:23:04.723Z,2.27
2017-06-16T11:25:32.245Z,6.80
2017-06-16T11:27:59.759Z,2.60
2017-06-16T11:30:27.306Z,2.13
2017-06-16T11:32:54.818Z,11.03
2017-06-16T11:35:22.416Z,3.57
2017-06-16T11:37:49.962Z,3.40
2017-06-16T11:40:17.490Z,3.60
2017-06-16T11:42:45.785Z,6.60
2017-06-16T11:45:13.594Z,5.63
2017-06-16T11:47:41.134Z,4.80
2017-06-16T11:50:08.639Z,6.13
2017-06-16T11:52:36.152Z,4.70
2017-06-16T11:55:03.712Z,6.60
2017-06-16T11:57:31.496Z,4.70
2017-06-16T11:59:59.040Z,5.27
2017-06-16T12:02:26.616Z,5.37
2017-06-16T12:04:54.134Z,5.07
2017-06-16T12:07:21.642Z,7.57
2017-06-16T12:09:49.184Z,4.77
2017-06-16T12:12:16.715Z,8.67
2017-06-16T12:14:44.279Z,7.30
2017-06-16T12:17:11.862Z,2.53
2017-06-16T12:19:39.379Z,7.70
2017-06-16T12:22:07.151Z,2.27
2017-06-16T12:24:34.966Z,2.33
2017-06-16T12:27:02.474Z,9.43
2017-06-16T12:29:30.755Z,2.13
2017-06-16T12:31:58.347Z,2.13
2017-06-16T12:34:25.859Z,1.37
2017-06-16T12:36:54.151Z,1.63
2017-06-16T12:39:21.703Z,1.77
2017-06-16T12:41:49.233Z,2.87
2017-06-16T12:44:16.741Z,5.30
2017-06-16T12:46:44.283Z,1.33
2017-06-16T12:49:11.811Z,1.20
2017-06-16T12:51:39.315Z,1.70
2017-06-16T12:54:06.870Z,1.77
2017-06-16T12:56:34.398Z,1.33
2017-06-16T12:59:02.325Z,1.70
2017-06-16T13:01:29.870Z,1.40
2017-06-16T13:03:57.403Z,6.40
2017-06-16T13:06:25.192Z,2.60
2017-06-16T13:11:20.218Z,2.70
2017-06-16T13:13:48.103Z,2.80
2017-06-16T13:16:15.601Z,5.33
2017-06-16T13:18:43.102Z,2.17
2017-06-16T13:21:10.662Z,1.97
2017-06-16T13:23:38.210Z,2.60
2017-06-16T13:26:05.714Z,2.60
2017-06-16T13:28:33.227Z,2.80
2017-06-16T13:31:00.782Z,2.80
2017-06-16T13:33:28.583Z,2.67
2017-06-16T13:35:56.346Z,2.57
2017-06-16T13:38:23.884Z,1.93
2017-06-16T13:40:51.398Z,2.60
2017-06-16T13:43:18.934Z,2.40
2017-06-16T13:45:47.699Z,3.50
2017-06-16T13:48:16.877Z,3.23
2017-06-16T13:50:44.740Z,2.40
2017-06-16T13:53:12.274Z,2.07
2017-06-16T13:55:40.774Z,2.30
2017-06-16T13:58:09.401Z,3.07
2017-06-16T14:00:37.967Z,2.63
2017-06-16T14:03:07.146Z,2.80
2017-06-16T14:05:35.247Z,3.20
2017-06-16T14:08:03.122Z,2.50
2017-06-16T14:10:30.715Z,1.93
2017-06-16T14:12:59.063Z,2.67
2017-06-16T14:15:26.717Z,1.80
2017-06-16T14:17:54.351Z,2.23
2017-06-16T14:20:21.935Z,2.27
2017-06-16T14:22:49.710Z,3.30
2017-06-16T14:25:17.248Z,3.40
2017-06-16T14:27:44.792Z,2.20
2017-06-16T14:30:12.311Z,6.50
2017-06-16T14:32:39.863Z,4.23
2017-06-16T14:35:07.365Z,2.83
2017-06-16T14:37:34.874Z,2.13
2017-06-16T14:40:02.434Z,2.60
2017-06-16T14:42:30.206Z,3.90
2017-06-16T14:44:57.712Z,2.53
2017-06-16T14:47:25.222Z,3.17
2017-06-16T14:49:52.750Z,2.00
2017-06-16T14:52:20.263Z,2.70
2017-06-16T14:54:47.793Z,2.70
2017-06-16T14:57:15.658Z,2.83
2017-06-16T14:59:43.197Z,3.27
2017-06-16T15:02:10.755Z,2.97
2017-06-16T15:04:38.268Z,2.67
2017-06-16T15:07:05.778Z,3.37
2017-06-16T15:09:33.824Z,2.90
2017-06-16T15:12:01.413Z,4.67
2017-06-16T15:14:28.995Z,2.63
2017-06-16T15:16:56.506Z,2.50
2017-06-16T15:19:24.020Z,4.83
2017-06-16T15:21:51.584Z,3.40
2017-06-16T15:24:19.130Z,4.10
2017-06-16T15:26:46.693Z,2.87
2017-06-16T15:29:14.212Z,7.80
2017-06-16T15:31:41.733Z,3.00
2017-06-16T15:34:09.278Z,3.57
2017-06-16T15:36:36.848Z,4.07
2017-06-16T15:39:04.366Z,4.63
2017-06-16T15:41:32.148Z,3.70
2017-06-16T15:44:00.075Z,3.30
2017-06-16T15:46:27.665Z,3.63
2017-06-16T15:48:55.244Z,3.90
2017-06-16T15:51:22.775Z,3.30
2017-06-16T15:53:50.324Z,6.37
2017-06-16T15:56:17.942Z,4.10
2017-06-16T15:58:46.278Z,5.93
2017-06-16T16:01:14.173Z,3.47
2017-06-16T16:03:41.686Z,5.63
2017-06-16T16:06:09.209Z,1.93
2017-06-16T16:08:36.751Z,2.40
2017-06-16T16:11:04.314Z,6.57
2017-06-16T16:13:31.838Z,3.03
2017-06-16T16:15:59.376Z,4.13
2017-06-16T16:18:26.934Z,5.20
2017-06-16T16:20:54.735Z,4.60
2017-06-16T16:23:22.286Z,2.50
2017-06-16T16:25:49.814Z,3.53
2017-06-16T16:28:17.531Z,5.23
2017-06-16T16:30:45.089Z,2.00
2017-06-16T16:33:12.620Z,3.30
2017-06-16T16:35:40.273Z,2.30
2017-06-16T16:38:07.777Z,3.33
2017-06-16T16:40:35.339Z,2.70
2017-06-16T16:43:02.862Z,5.80
2017-06-16T16:45:30.463Z,2.73
2017-06-16T16:47:57.994Z,4.10
2017-06-16T16:50:25.554Z,2.13
2017-06-16T16:52:53.072Z,2.10
2017-06-16T16:55:21.356Z,3.83
2017-06-16T16:57:48.900Z,7.50
2017-06-16T17:00:17.176Z,2.57
2017-06-16T17:02:44.730Z,2.90
2017-06-16T17:05:13.036Z,3.30
2017-06-16T17:07:40.590Z,3.10
2017-06-16T17:10:08.100Z,5.27
2017-06-16T17:12:35.656Z,2.93
2017-06-16T17:15:03.175Z,3.70
2017-06-16T17:17:30.718Z,3.33
2017-06-16T17:19:58.263Z,2.87
2017-06-16T17:22:25.834Z,3.30
2017-06-16T17:24:53.387Z,4.73
2017-06-16T17:27:21.714Z,3.33
2017-06-16T17:29:49.269Z,6.00
2017-06-16T17:32:16.807Z,3.80
2017-06-16T17:34:44.346Z,5.33
2017-06-16T17:37:12.090Z,6.00
2017-06-16T17:39:39.695Z,3.97
2017-06-16T17:42:07.210Z,3.70
2017-06-16T17:44:34.771Z,4.13
2017-06-16T17:47:02.332Z,3.30
2017-06-16T17:49:29.855Z,2.87
2017-06-16T17:51:57.423Z,4.10
2017-06-16T17:54:24.954Z,3.83
2017-06-16T17:56:52.514Z,2.33
2017-06-16T17:59:20.039Z,3.60
2017-06-16T18:01:47.638Z,5.77
2017-06-16T18:04:15.183Z,4.07
2017-06-16T18:06:42.699Z,5.80
2017-06-16T18:09:10.247Z,4.70
2017-06-16T18:11:37.842Z,4.10
2017-06-16T18:14:06.235Z,5.40
2017-06-16T18:16:33.764Z,3.40
2017-06-16T18:19:01.311Z,6.80
2017-06-16T18:21:28.824Z,5.03
2017-06-16T18:23:56.366Z,3.40
2017-06-16T18:26:23.913Z,6.30
2017-06-16T18:28:52.439Z,2.07
2017-06-16T18:31:19.995Z,4.43
2017-06-16T18:33:47.722Z,3.67
2017-06-16T18:36:16.021Z,4.10
2017-06-16T18:38:43.532Z,3.17
2017-06-16T18:41:11.323Z,3.83
2017-06-16T18:43:39.681Z,3.03
2017-06-16T18:46:07.247Z,2.90
2017-06-16T18:48:34.813Z,2.40
2017-06-16T18:51:02.431Z,6.73
2017-06-16T18:53:31.776Z,2.80
2017-06-16T18:56:01.158Z,2.77
2017-06-16T18:58:29.331Z,4.10
2017-06-16T19:00:57.148Z,3.03
2017-06-16T19:03:26.120Z,3.10
2017-06-16T19:05:54.823Z,7.20
2017-06-16T19:08:22.481Z,5.10
2017-06-16T19:10:53.759Z,4.87
2017-06-16T19:13:21.675Z,2.70
2017-06-16T19:15:55.065Z,8.67
2017-06-16T19:18:22.580Z,3.83
2017-06-16T19:20:50.123Z,2.70
2017-06-16T19:23:17.639Z,5.93
2017-06-16T19:25:45.182Z,3.50
2017-06-16T19:28:12.707Z,5.17
2017-06-16T19:30:40.240Z,2.70
2017-06-16T19:33:08.573Z,4.80
2017-06-16T19:35:36.089Z,4.23
2017-06-16T19:38:03.634Z,6.10
2017-06-16T19:40:31.910Z,6.70
2017-06-16T19:43:00.219Z,5.97
2017-06-16T19:45:27.740Z,3.20
2017-06-16T19:47:55.289Z,4.17
2017-06-16T19:50:22.815Z,2.93
2017-06-16T19:52:50.368Z,5.30
2017-06-16T19:55:17.910Z,6.90
2017-06-16T19:57:45.856Z,3.93
2017-06-16T20:00:15.121Z,6.27
2017-06-16T20:02:42.782Z,3.40
2017-06-16T20:05:10.585Z,3.37
2017-06-16T20:07:38.664Z,5.60
2017-06-16T20:10:06.479Z,3.70
2017-06-16T20:12:34.293Z,3.93
2017-06-16T20:15:02.821Z,6.07
2017-06-16T20:17:30.432Z,5.93
2017-06-16T20:19:59.065Z,5.07
2017-06-16T20:22:27.508Z,7.67
2017-06-16T20:24:55.103Z,6.20
2017-06-16T20:27:22.607Z,4.50
2017-06-16T20:29:50.928Z,6.03
2017-06-16T20:32:18.456Z,3.97
2017-06-16T20:34:46.780Z,5.40
2017-06-16T20:37:14.343Z,5.57
2017-06-16T20:39:41.929Z,3.90
2017-06-16T20:42:09.430Z,4.53
2017-06-16T20:44:36.977Z,4.07
2017-06-16T20:47:05.255Z,6.00
2017-06-16T20:49:33.582Z,3.47
2017-06-16T20:52:01.899Z,3.97
2017-06-16T20:54:30.427Z,5.90
2017-06-16T20:56:58.204Z,9.33
2017-06-16T20:59:25.740Z,3.87
2017-06-16T21:01:53.539Z,6.60
2017-06-16T21:04:21.050Z,4.47
2017-06-16T21:06:48.557Z,3.17
2017-06-16T21:09:16.098Z,4.47
2017-06-16T21:11:43.702Z,5.97
2017-06-16T21:14:11.248Z,5.90
2017-06-16T21:16:38.999Z,3.87
2017-06-16T21:19:06.554Z,5.33
2017-06-16T21:21:34.058Z,5.27
2017-06-16T21:24:02.387Z,11.80
2017-06-16T21:26:29.935Z,8.13
2017-06-16T21:28:57.495Z,3.80
2017-06-16T21:31:25.467Z,4.73
2017-06-16T21:33:53.013Z,8.40
2017-06-16T21:36:20.563Z,5.83
2017-06-16T21:38:48.078Z,6.87
2017-06-16T21:41:15.627Z,9.03
2017-06-16T21:43:43.227Z,4.70
2017-06-16T21:46:11.519Z,4.93
2017-06-16T21:48:39.148Z,6.40
2017-06-16T21:51:06.664Z,5.93
2017-06-16T21:53:34.235Z,8.60
2017-06-16T21:56:01.905Z,6.30
2017-06-16T21:58:29.414Z,6.73
2017-06-16T22:00:57.009Z,10.97
2017-06-16T22:03:24.817Z,4.97
2017-06-16T22:05:52.362Z,4.73
2017-06-16T22:08:20.048Z,6.60
2017-06-16T22:10:47.599Z,20.63
2017-06-16T22:13:15.283Z,7.33
2017-06-16T22:15:43.090Z,5.53
2017-06-16T22:18:10.639Z,9.40
2017-06-16T22:20:38.882Z,5.97
2017-06-16T22:23:08.069Z,9.03
2017-06-16T22:25:37.418Z,4.70
2017-06-16T22:28:04.974Z,5.73
2017-06-16T22:30:32.525Z,10.17
2017-06-16T22:33:00.073Z,8.93
2017-06-16T22:35:27.624Z,10.33
2017-06-16T22:37:55.159Z,8.10
2017-06-16T22:40:22.992Z,10.70
2017-06-16T22:42:50.512Z,6.83
2017-06-16T22:45:18.316Z,11.07
2017-06-16T22:47:45.830Z,7.37
2017-06-16T22:50:14.151Z,7.07
2017-06-16T22:52:41.680Z,10.53
2017-06-16T22:55:09.203Z,7.07
2017-06-16T22:57:36.753Z,9.33
2017-06-16T23:00:04.273Z,9.60
2017-06-16T23:02:31.819Z,17.90
2017-06-16T23:04:59.325Z,4.20
2017-06-16T23:07:26.881Z,9.40
2017-06-16T23:09:54.392Z,7.73
2017-06-16T23:12:21.952Z,8.03
2017-06-16T23:14:49.474Z,5.43
2017-06-16T23:17:17.007Z,6.10
2017-06-16T23:19:44.551Z,8.50
2017-06-16T23:22:12.063Z,14.50
2017-06-16T23:24:39.609Z,7.40
2017-06-16T23:27:07.446Z,10.10
2017-06-16T23:29:35.010Z,6.30
2017-06-16T23:32:02.772Z,11.03
2017-06-16T23:34:30.293Z,10.10
2017-06-16T23:36:57.862Z,6.90
2017-06-16T23:39:25.386Z,4.30
2017-06-16T23:41:52.935Z,4.60
2017-06-16T23:44:20.459Z,11.70
2017-06-16T23:46:48.019Z,5.77
2017-06-16T23:49:15.536Z,5.37
2017-06-16T23:51:43.812Z,4.93
2017-06-16T23:54:12.131Z,5.17
2017-06-16T23:56:39.692Z,7.67
2017-06-16T23:59:07.197Z,4.57
